Campanya meteocatpedra

Dades de l'estació automàtica el Prat de Llobregat

?
?
Resum diari 21:30 TU
Dades diàries de l'estació meteorològica
Temperatura mitjana 16.8 °C
Temperatura màxima 23.4 °C 13:06 TU
Temperatura mínima 12.6 °C 4:15 TU
Humitat relativa mitjana 74%
Precipitació acumulada 0.0 mm
Ratxa màxima del vent (10 m) 34.6 km/h - 313º 7:20 TU
Irradiació solar global 13.9 MJ/m2

El tram horari està expressat en Temps Universal (TU). Cal sumar una hora en horari d'hivern i dues en horari d'estiu per passar a l'hora oficial.

el Prat de Llobregat

Metadades estació meteorol´gica
Municipi El Prat de Llobregat
Comarca Baix Llobregat
Altitud 8 m
Data alta 22.03.2011
Estat actual Operativa
Dades de període
Període
TU
TM
°C
TX
°C
TN
°C
HRM
%
PPT
mm
VVM (10 m)
km/h
DVM (10 m)
graus
VVX (10 m)
km/h
RS
W/m2
00:00 - 00:30 13.8 13.9 13.7 95 0.0 7.2 279 12.2 0
00:30 - 01:00 13.9 13.9 13.8 95 0.0 7.9 286 13.3 0
01:00 - 01:30 13.8 13.8 13.7 95 0.0 6.8 299 12.6 0
01:30 - 02:00 13.7 13.7 13.6 95 0.0 6.8 297 12.2 0
02:00 - 02:30 13.6 13.7 13.4 94 0.0 7.9 285 11.5 0
02:30 - 03:00 13.2 13.4 13.1 94 0.0 6.8 290 13.7 0
03:00 - 03:30 13.6 13.9 13.2 93 0.0 6.5 313 14.8 0
03:30 - 04:00 13.6 13.8 13.1 92 0.0 6.5 303 12.2 0
04:00 - 04:30 13.1 14.7 12.6 93 0.0 6.5 319 21.2 0
04:30 - 05:00 14.7 15.0 14.4 84 0.0 12.2 312 26.3 0
05:00 - 05:30 14.1 14.3 13.9 85 0.0 12.2 311 24.8 0
05:30 - 06:00 14.0 14.1 13.8 82 0.0 13.3 316 26.6 0
06:00 - 06:30 13.9 14.0 13.8 80 0.0 13.7 312 25.2 5
06:30 - 07:00 14.1 14.4 13.9 77 0.0 13.7 313 29.5 45
07:00 - 07:30 14.6 14.7 14.4 72 0.0 15.8 314 34.6 122
07:30 - 08:00 15.3 15.6 14.7 68 0.0 15.8 318 28.8 202
08:00 - 08:30 15.8 16.3 15.5 66 0.0 15.8 317 30.6 290
08:30 - 09:00 16.5 17.0 16.2 64 0.0 14.0 316 34.2 371
09:00 - 09:30 17.3 17.7 17.0 62 0.0 13.7 312 25.9 445
09:30 - 10:00 18.2 18.9 17.6 59 0.0 12.2 312 25.6 504
10:00 - 10:30 19.2 19.9 18.6 57 0.0 10.4 311 23.0 550
10:30 - 11:00 20.2 20.6 19.7 55 0.0 9.0 315 16.9 586
11:00 - 11:30 21.1 21.7 20.6 53 0.0 7.9 313 16.9 606
11:30 - 12:00 21.9 22.3 21.5 51 0.0 5.4 287 12.2 607
12:00 - 12:30 22.4 22.6 22.0 48 0.0 4.3 261 11.9 595
12:30 - 13:00 22.4 23.0 22.1 49 0.0 5.8 251 11.9 571
13:00 - 13:30 22.3 23.4 21.4 55 0.0 9.4 206 18.4 529
13:30 - 14:00 21.4 21.7 21.0 59 0.0 13.3 199 20.2 475
14:00 - 14:30 21.0 21.3 20.9 60 0.0 13.3 204 18.7 409
14:30 - 15:00 20.7 21.0 20.4 60 0.0 13.3 210 19.1 333
15:00 - 15:30 20.3 20.5 20.0 63 0.0 13.7 206 20.5 250
15:30 - 16:00 19.8 20.0 19.4 66 0.0 13.3 201 19.1 163
16:00 - 16:30 19.0 19.4 18.5 69 0.0 12.2 203 19.1 79
16:30 - 17:00 17.9 18.4 17.5 75 0.0 11.2 198 16.9 17
17:00 - 17:30 17.1 17.5 16.5 78 0.0 10.4 206 16.6 0
17:30 - 18:00 15.5 16.5 14.9 84 0.0 5.0 251 9.4 0
18:00 - 18:30 14.9 15.0 14.7 87 0.0 5.0 267 8.3 0
18:30 - 19:00 14.7 14.8 14.5 87 0.0 5.8 276 9.4 0
19:00 - 19:30 15.4 16.0 14.7 78 0.0 6.5 286 12.2 0
19:30 - 20:00 15.6 16.2 15.0 75 0.0 7.2 288 15.5 0
20:00 - 20:30 15.8 16.1 15.6 73 0.0 9.7 289 16.2 0
20:30 - 21:00 16.2 16.5 16.0 71 0.0 10.8 302 22.3 0
21:00 - 21:30 16.5 16.7 16.3 69 0.0 12.2 300 25.2 0
21:30 - 22:00 16.3 16.4 16.1 69 0.0 12.2 304 23.0 0
22:00 - 22:30 (s/d) (s/d) (s/d) (s/d) (s/d) (s/d) (s/d) (s/d) (s/d)

Les dades en taronja només han passat un control de qualitat automàtic. Resta pendent la seva validació definitiva.